sensor_id;sensor_type;location;lat;lon;timestamp;P1;durP1;ratioP1;P2;durP2;ratioP2
26742;SDS011;14341;51.256;22.478;2023-04-03T00:01:17;19.23;;;12.85;;
26742;SDS011;14341;51.256;22.478;2023-04-03T00:04:21;15.30;;;11.35;;
26742;SDS011;14341;51.256;22.478;2023-04-03T00:07:24;13.82;;;10.02;;
26742;SDS011;14341;51.256;22.478;2023-04-03T00:10:29;12.30;;;9.60;;
26742;SDS011;14341;51.256;22.478;2023-04-03T00:13:32;18.50;;;10.68;;
26742;SDS011;14341;51.256;22.478;2023-04-03T00:16:36;12.85;;;10.25;;
26742;SDS011;14341;51.256;22.478;2023-04-03T00:19:39;15.20;;;10.80;;
26742;SDS011;14341;51.256;22.478;2023-04-03T00:22:42;16.95;;;11.63;;
26742;SDS011;14341;51.256;22.478;2023-04-03T00:25:47;15.45;;;11.52;;
26742;SDS011;14341;51.256;22.478;2023-04-03T00:28:51;19.48;;;13.77;;
26742;SDS011;14341;51.256;22.478;2023-04-03T00:31:54;18.48;;;12.63;;
26742;SDS011;14341;51.256;22.478;2023-04-03T00:34:57;21.13;;;13.90;;
26742;SDS011;14341;51.256;22.478;2023-04-03T00:38:00;19.70;;;13.93;;
26742;SDS011;14341;51.256;22.478;2023-04-03T00:41:05;17.05;;;13.13;;
26742;SDS011;14341;51.256;22.478;2023-04-03T00:44:19;20.92;;;15.05;;
26742;SDS011;14341;51.256;22.478;2023-04-03T00:47:23;19.25;;;13.85;;
26742;SDS011;14341;51.256;22.478;2023-04-03T00:50:28;20.90;;;14.32;;
26742;SDS011;14341;51.256;22.478;2023-04-03T00:53:33;20.83;;;14.52;;
26742;SDS011;14341;51.256;22.478;2023-04-03T00:56:42;16.55;;;13.05;;
26742;SDS011;14341;51.256;22.478;2023-04-03T00:59:48;20.13;;;14.00;;
26742;SDS011;14341;51.256;22.478;2023-04-03T01:02:54;19.80;;;13.63;;
26742;SDS011;14341;51.256;22.478;2023-04-03T01:05:57;21.00;;;14.20;;
26742;SDS011;14341;51.256;22.478;2023-04-03T01:09:01;19.95;;;14.13;;
26742;SDS011;14341;51.256;22.478;2023-04-03T01:12:14;21.17;;;15.23;;
26742;SDS011;14341;51.256;22.478;2023-04-03T01:15:21;21.27;;;14.77;;
26742;SDS011;14341;51.256;22.478;2023-04-03T01:18:26;21.10;;;15.38;;
26742;SDS011;14341;51.256;22.478;2023-04-03T01:24:58;21.25;;;13.88;;
26742;SDS011;14341;51.256;22.478;2023-04-03T01:28:03;17.38;;;13.63;;
26742;SDS011;14341;51.256;22.478;2023-04-03T01:31:10;18.33;;;13.48;;
26742;SDS011;14341;51.256;22.478;2023-04-03T01:34:21;18.55;;;12.13;;
26742;SDS011;14341;51.256;22.478;2023-04-03T01:37:25;17.20;;;12.27;;
26742;SDS011;14341;51.256;22.478;2023-04-03T01:40:29;14.68;;;11.02;;
26742;SDS011;14341;51.256;22.478;2023-04-03T01:43:33;16.58;;;11.68;;
26742;SDS011;14341;51.256;22.478;2023-04-03T01:46:38;16.98;;;11.65;;
26742;SDS011;14341;51.256;22.478;2023-04-03T01:49:48;19.67;;;12.93;;
26742;SDS011;14341;51.256;22.478;2023-04-03T01:52:56;17.88;;;12.88;;
26742;SDS011;14341;51.256;22.478;2023-04-03T01:56:03;21.33;;;12.15;;
26742;SDS011;14341;51.256;22.478;2023-04-03T02:03:26;17.90;;;12.30;;
26742;SDS011;14341;51.256;22.478;2023-04-03T02:06:30;17.23;;;12.38;;
26742;SDS011;14341;51.256;22.478;2023-04-03T02:09:34;17.38;;;11.23;;
26742;SDS011;14341;51.256;22.478;2023-04-03T02:12:37;15.75;;;10.20;;
26742;SDS011;14341;51.256;22.478;2023-04-03T02:15:41;14.25;;;10.35;;
26742;SDS011;14341;51.256;22.478;2023-04-03T02:18:44;16.58;;;10.05;;
26742;SDS011;14341;51.256;22.478;2023-04-03T02:21:49;16.73;;;10.35;;
26742;SDS011;14341;51.256;22.478;2023-04-03T02:24:52;19.80;;;11.82;;
26742;SDS011;14341;51.256;22.478;2023-04-03T02:27:55;21.83;;;14.05;;
26742;SDS011;14341;51.256;22.478;2023-04-03T02:30:59;20.33;;;13.45;;
26742;SDS011;14341;51.256;22.478;2023-04-03T02:34:03;20.00;;;13.30;;
26742;SDS011;14341;51.256;22.478;2023-04-03T02:37:09;20.13;;;13.57;;
26742;SDS011;14341;51.256;22.478;2023-04-03T02:40:13;20.70;;;13.40;;
26742;SDS011;14341;51.256;22.478;2023-04-03T02:43:16;20.40;;;13.82;;
26742;SDS011;14341;51.256;22.478;2023-04-03T02:46:20;19.15;;;12.63;;
26742;SDS011;14341;51.256;22.478;2023-04-03T02:49:24;21.90;;;13.77;;
26742;SDS011;14341;51.256;22.478;2023-04-03T02:52:28;16.33;;;11.35;;
26742;SDS011;14341;51.256;22.478;2023-04-03T02:55:33;19.98;;;11.32;;
26742;SDS011;14341;51.256;22.478;2023-04-03T02:58:36;13.85;;;10.60;;
26742;SDS011;14341;51.256;22.478;2023-04-03T03:01:42;22.17;;;12.43;;
26742;SDS011;14341;51.256;22.478;2023-04-03T03:04:46;18.38;;;11.32;;
26742;SDS011;14341;51.256;22.478;2023-04-03T03:07:51;14.40;;;9.23;;
26742;SDS011;14341;51.256;22.478;2023-04-03T03:10:54;14.80;;;9.15;;
26742;SDS011;14341;51.256;22.478;2023-04-03T03:13:57;12.80;;;7.80;;
26742;SDS011;14341;51.256;22.478;2023-04-03T03:17:00;14.77;;;7.65;;
26742;SDS011;14341;51.256;22.478;2023-04-03T03:20:04;12.88;;;7.53;;
26742;SDS011;14341;51.256;22.478;2023-04-03T03:23:09;15.15;;;7.80;;
26742;SDS011;14341;51.256;22.478;2023-04-03T03:26:13;13.93;;;7.93;;
26742;SDS011;14341;51.256;22.478;2023-04-03T03:29:16;11.75;;;8.02;;
26742;SDS011;14341;51.256;22.478;2023-04-03T03:32:20;17.50;;;7.97;;
26742;SDS011;14341;51.256;22.478;2023-04-03T03:35:23;12.90;;;6.78;;
26742;SDS011;14341;51.256;22.478;2023-04-03T03:38:28;11.32;;;6.25;;
26742;SDS011;14341;51.256;22.478;2023-04-03T03:41:33;11.60;;;5.97;;
26742;SDS011;14341;51.256;22.478;2023-04-03T03:44:37;12.15;;;5.93;;
26742;SDS011;14341;51.256;22.478;2023-04-03T03:47:41;8.93;;;5.35;;
26742;SDS011;14341;51.256;22.478;2023-04-03T03:50:44;8.15;;;4.72;;
26742;SDS011;14341;51.256;22.478;2023-04-03T03:53:49;10.88;;;5.30;;
26742;SDS011;14341;51.256;22.478;2023-04-03T03:56:54;9.73;;;5.43;;
26742;SDS011;14341;51.256;22.478;2023-04-03T03:59:59;9.02;;;5.07;;
26742;SDS011;14341;51.256;22.478;2023-04-03T04:03:04;9.85;;;5.32;;
26742;SDS011;14341;51.256;22.478;2023-04-03T04:06:07;10.85;;;4.82;;
26742;SDS011;14341;51.256;22.478;2023-04-03T04:09:12;7.95;;;5.20;;
26742;SDS011;14341;51.256;22.478;2023-04-03T04:12:16;9.52;;;4.60;;
26742;SDS011;14341;51.256;22.478;2023-04-03T04:15:19;8.38;;;4.70;;
26742;SDS011;14341;51.256;22.478;2023-04-03T04:18:23;13.18;;;4.82;;
26742;SDS011;14341;51.256;22.478;2023-04-03T04:21:27;14.95;;;7.30;;
26742;SDS011;14341;51.256;22.478;2023-04-03T04:24:32;12.13;;;6.57;;
26742;SDS011;14341;51.256;22.478;2023-04-03T04:27:37;10.65;;;5.47;;
26742;SDS011;14341;51.256;22.478;2023-04-03T04:30:41;11.27;;;4.60;;
26742;SDS011;14341;51.256;22.478;2023-04-03T04:33:46;8.15;;;4.80;;
26742;SDS011;14341;51.256;22.478;2023-04-03T04:36:50;7.85;;;4.50;;
26742;SDS011;14341;51.256;22.478;2023-04-03T04:39:55;8.40;;;4.45;;
26742;SDS011;14341;51.256;22.478;2023-04-03T04:42:59;7.38;;;4.50;;
26742;SDS011;14341;51.256;22.478;2023-04-03T04:46:03;7.35;;;4.60;;
26742;SDS011;14341;51.256;22.478;2023-04-03T04:49:11;7.75;;;4.18;;
26742;SDS011;14341;51.256;22.478;2023-04-03T04:52:15;7.80;;;4.10;;
26742;SDS011;14341;51.256;22.478;2023-04-03T04:55:20;6.45;;;4.25;;
26742;SDS011;14341;51.256;22.478;2023-04-03T04:58:26;9.63;;;4.20;;
26742;SDS011;14341;51.256;22.478;2023-04-03T05:01:31;8.20;;;4.90;;
26742;SDS011;14341;51.256;22.478;2023-04-03T05:04:40;11.88;;;5.03;;
26742;SDS011;14341;51.256;22.478;2023-04-03T05:07:50;8.50;;;4.50;;
26742;SDS011;14341;51.256;22.478;2023-04-03T05:10:55;9.70;;;4.93;;
26742;SDS011;14341;51.256;22.478;2023-04-03T05:14:01;10.70;;;4.47;;
26742;SDS011;14341;51.256;22.478;2023-04-03T05:17:07;11.38;;;5.13;;
26742;SDS011;14341;51.256;22.478;2023-04-03T05:20:15;9.63;;;4.75;;
26742;SDS011;14341;51.256;22.478;2023-04-03T05:23:23;8.00;;;4.45;;
26742;SDS011;14341;51.256;22.478;2023-04-03T05:26:28;9.07;;;4.90;;
26742;SDS011;14341;51.256;22.478;2023-04-03T05:29:33;6.05;;;4.03;;
26742;SDS011;14341;51.256;22.478;2023-04-03T05:32:38;9.18;;;3.95;;
26742;SDS011;14341;51.256;22.478;2023-04-03T05:36:05;5.88;;;3.65;;
26742;SDS011;14341;51.256;22.478;2023-04-03T05:39:15;25.33;;;6.72;;
26742;SDS011;14341;51.256;22.478;2023-04-03T05:42:22;6.32;;;3.80;;
26742;SDS011;14341;51.256;22.478;2023-04-03T05:45:25;7.88;;;7.07;;
26742;SDS011;14341;51.256;22.478;2023-04-03T05:48:30;7.53;;;3.75;;
26742;SDS011;14341;51.256;22.478;2023-04-03T05:51:35;7.03;;;4.55;;
26742;SDS011;14341;51.256;22.478;2023-04-03T05:54:53;8.02;;;4.22;;
26742;SDS011;14341;51.256;22.478;2023-04-03T05:58:01;9.90;;;4.20;;
26742;SDS011;14341;51.256;22.478;2023-04-03T06:01:05;5.70;;;3.72;;
26742;SDS011;14341;51.256;22.478;2023-04-03T06:04:09;13.02;;;6.53;;
26742;SDS011;14341;51.256;22.478;2023-04-03T06:07:14;12.50;;;6.60;;
26742;SDS011;14341;51.256;22.478;2023-04-03T06:10:19;57.75;;;23.23;;
26742;SDS011;14341;51.256;22.478;2023-04-03T06:13:23;21.73;;;7.63;;
26742;SDS011;14341;51.256;22.478;2023-04-03T06:16:27;9.93;;;4.40;;
26742;SDS011;14341;51.256;22.478;2023-04-03T06:19:30;9.90;;;4.18;;
26742;SDS011;14341;51.256;22.478;2023-04-03T06:22:34;7.22;;;3.95;;
26742;SDS011;14341;51.256;22.478;2023-04-03T06:39:36;9.27;;;4.15;;
26742;SDS011;14341;51.256;22.478;2023-04-03T06:42:39;7.05;;;4.22;;
26742;SDS011;14341;51.256;22.478;2023-04-03T06:45:46;8.80;;;4.43;;
26742;SDS011;14341;51.256;22.478;2023-04-03T06:48:50;9.13;;;4.57;;
26742;SDS011;14341;51.256;22.478;2023-04-03T06:51:53;8.50;;;4.45;;
26742;SDS011;14341;51.256;22.478;2023-04-03T06:54:58;6.78;;;3.92;;
26742;SDS011;14341;51.256;22.478;2023-04-03T06:58:02;8.23;;;4.20;;
26742;SDS011;14341;51.256;22.478;2023-04-03T07:01:05;14.07;;;4.85;;
26742;SDS011;14341;51.256;22.478;2023-04-03T07:04:09;8.15;;;3.65;;
26742;SDS011;14341;51.256;22.478;2023-04-03T07:07:12;8.50;;;4.13;;
26742;SDS011;14341;51.256;22.478;2023-04-03T07:10:17;11.13;;;4.97;;
26742;SDS011;14341;51.256;22.478;2023-04-03T07:13:21;9.27;;;4.18;;
26742;SDS011;14341;51.256;22.478;2023-04-03T07:16:24;5.35;;;3.80;;
26742;SDS011;14341;51.256;22.478;2023-04-03T07:19:28;8.23;;;3.97;;
26742;SDS011;14341;51.256;22.478;2023-04-03T07:22:32;8.48;;;4.20;;
26742;SDS011;14341;51.256;22.478;2023-04-03T07:25:40;6.97;;;4.53;;
26742;SDS011;14341;51.256;22.478;2023-04-03T07:28:45;9.27;;;4.80;;
26742;SDS011;14341;51.256;22.478;2023-04-03T07:31:49;7.32;;;4.38;;
26742;SDS011;14341;51.256;22.478;2023-04-03T07:34:54;10.85;;;4.55;;
26742;SDS011;14341;51.256;22.478;2023-04-03T07:37:58;9.00;;;4.50;;
26742;SDS011;14341;51.256;22.478;2023-04-03T07:41:03;8.45;;;4.45;;
26742;SDS011;14341;51.256;22.478;2023-04-03T07:44:07;9.65;;;4.55;;
26742;SDS011;14341;51.256;22.478;2023-04-03T07:47:11;9.07;;;3.80;;
26742;SDS011;14341;51.256;22.478;2023-04-03T07:50:15;11.48;;;4.70;;
26742;SDS011;14341;51.256;22.478;2023-04-03T07:53:19;10.40;;;4.85;;
26742;SDS011;14341;51.256;22.478;2023-04-03T07:56:24;7.70;;;4.30;;
26742;SDS011;14341;51.256;22.478;2023-04-03T07:59:27;13.50;;;4.65;;
26742;SDS011;14341;51.256;22.478;2023-04-03T08:02:30;11.20;;;3.72;;
26742;SDS011;14341;51.256;22.478;2023-04-03T08:05:36;9.52;;;4.60;;
26742;SDS011;14341;51.256;22.478;2023-04-03T08:08:40;8.63;;;4.75;;
26742;SDS011;14341;51.256;22.478;2023-04-03T08:11:45;7.32;;;3.65;;
26742;SDS011;14341;51.256;22.478;2023-04-03T08:14:48;11.10;;;4.18;;
26742;SDS011;14341;51.256;22.478;2023-04-03T08:17:51;14.10;;;5.35;;
26742;SDS011;14341;51.256;22.478;2023-04-03T08:20:55;10.05;;;4.60;;
26742;SDS011;14341;51.256;22.478;2023-04-03T08:23:58;9.10;;;4.57;;
26742;SDS011;14341;51.256;22.478;2023-04-03T08:27:02;12.38;;;4.30;;
26742;SDS011;14341;51.256;22.478;2023-04-03T08:30:06;8.40;;;4.10;;
26742;SDS011;14341;51.256;22.478;2023-04-03T08:33:11;10.05;;;4.68;;
26742;SDS011;14341;51.256;22.478;2023-04-03T08:36:17;11.40;;;4.82;;
26742;SDS011;14341;51.256;22.478;2023-04-03T08:39:22;9.60;;;4.30;;
26742;SDS011;14341;51.256;22.478;2023-04-03T08:42:32;7.45;;;3.78;;
26742;SDS011;14341;51.256;22.478;2023-04-03T08:45:45;6.70;;;3.85;;
26742;SDS011;14341;51.256;22.478;2023-04-03T08:48:52;8.38;;;3.78;;
26742;SDS011;14341;51.256;22.478;2023-04-03T08:51:57;7.25;;;4.28;;
26742;SDS011;14341;51.256;22.478;2023-04-03T08:55:05;6.25;;;4.10;;
26742;SDS011;14341;51.256;22.478;2023-04-03T08:58:18;7.40;;;3.67;;
26742;SDS011;14341;51.256;22.478;2023-04-03T09:01:24;7.95;;;4.20;;
26742;SDS011;14341;51.256;22.478;2023-04-03T09:04:32;7.60;;;4.63;;
26742;SDS011;14341;51.256;22.478;2023-04-03T09:07:37;9.75;;;4.60;;
26742;SDS011;14341;51.256;22.478;2023-04-03T09:10:45;6.93;;;3.95;;
26742;SDS011;14341;51.256;22.478;2023-04-03T09:13:52;6.18;;;3.85;;
26742;SDS011;14341;51.256;22.478;2023-04-03T09:17:00;6.30;;;3.63;;
26742;SDS011;14341;51.256;22.478;2023-04-03T09:20:13;6.80;;;4.20;;
26742;SDS011;14341;51.256;22.478;2023-04-03T09:23:24;7.50;;;3.97;;
26742;SDS011;14341;51.256;22.478;2023-04-03T09:26:31;5.13;;;3.20;;
26742;SDS011;14341;51.256;22.478;2023-04-03T09:29:41;6.05;;;3.00;;
26742;SDS011;14341;51.256;22.478;2023-04-03T09:32:48;5.97;;;3.20;;
26742;SDS011;14341;51.256;22.478;2023-04-03T09:35:53;6.05;;;3.65;;
26742;SDS011;14341;51.256;22.478;2023-04-03T09:39:02;4.13;;;3.47;;
26742;SDS011;14341;51.256;22.478;2023-04-03T09:42:14;7.43;;;4.18;;
26742;SDS011;14341;51.256;22.478;2023-04-03T09:45:25;8.45;;;4.13;;
26742;SDS011;14341;51.256;22.478;2023-04-03T09:48:30;9.30;;;3.72;;
26742;SDS011;14341;51.256;22.478;2023-04-03T09:51:33;7.65;;;3.15;;
26742;SDS011;14341;51.256;22.478;2023-04-03T09:54:37;5.47;;;3.60;;
26742;SDS011;14341;51.256;22.478;2023-04-03T09:57:42;4.43;;;3.38;;
26742;SDS011;14341;51.256;22.478;2023-04-03T10:00:53;5.50;;;3.80;;
26742;SDS011;14341;51.256;22.478;2023-04-03T10:04:05;4.53;;;3.58;;
26742;SDS011;14341;51.256;22.478;2023-04-03T10:07:26;5.85;;;3.67;;
26742;SDS011;14341;51.256;22.478;2023-04-03T10:10:32;5.90;;;3.40;;
26742;SDS011;14341;51.256;22.478;2023-04-03T10:13:35;6.57;;;3.67;;
26742;SDS011;14341;51.256;22.478;2023-04-03T10:16:53;7.10;;;3.97;;
26742;SDS011;14341;51.256;22.478;2023-04-03T10:20:03;6.45;;;3.63;;
26742;SDS011;14341;51.256;22.478;2023-04-03T10:23:15;12.13;;;5.93;;
26742;SDS011;14341;51.256;22.478;2023-04-03T10:26:27;10.15;;;5.90;;
26742;SDS011;14341;51.256;22.478;2023-04-03T10:29:39;8.90;;;4.38;;
26742;SDS011;14341;51.256;22.478;2023-04-03T10:32:57;8.38;;;3.63;;
26742;SDS011;14341;51.256;22.478;2023-04-03T10:36:10;5.65;;;3.85;;
26742;SDS011;14341;51.256;22.478;2023-04-03T10:39:23;5.88;;;3.47;;
26742;SDS011;14341;51.256;22.478;2023-04-03T10:42:35;5.03;;;3.53;;
26742;SDS011;14341;51.256;22.478;2023-04-03T10:45:49;5.75;;;3.38;;
26742;SDS011;14341;51.256;22.478;2023-04-03T10:49:01;4.78;;;3.17;;
26742;SDS011;14341;51.256;22.478;2023-04-03T10:52:17;5.75;;;3.38;;
26742;SDS011;14341;51.256;22.478;2023-04-03T10:55:28;4.57;;;3.50;;
26742;SDS011;14341;51.256;22.478;2023-04-03T10:58:38;6.85;;;3.97;;
26742;SDS011;14341;51.256;22.478;2023-04-03T11:01:46;4.10;;;3.35;;
26742;SDS011;14341;51.256;22.478;2023-04-03T11:04:56;5.78;;;4.03;;
26742;SDS011;14341;51.256;22.478;2023-04-03T11:08:04;3.80;;;3.33;;
26742;SDS011;14341;51.256;22.478;2023-04-03T11:11:16;5.55;;;3.38;;
26742;SDS011;14341;51.256;22.478;2023-04-03T11:14:24;6.82;;;3.15;;
26742;SDS011;14341;51.256;22.478;2023-04-03T11:17:31;4.97;;;3.55;;
26742;SDS011;14341;51.256;22.478;2023-04-03T11:20:42;4.72;;;3.35;;
26742;SDS011;14341;51.256;22.478;2023-04-03T11:23:48;4.38;;;3.17;;
26742;SDS011;14341;51.256;22.478;2023-04-03T11:26:54;5.20;;;3.30;;
26742;SDS011;14341;51.256;22.478;2023-04-03T11:30:00;4.45;;;3.63;;
26742;SDS011;14341;51.256;22.478;2023-04-03T11:36:38;9.18;;;8.27;;
26742;SDS011;14341;51.256;22.478;2023-04-03T11:39:47;5.95;;;2.80;;
26742;SDS011;14341;51.256;22.478;2023-04-03T11:43:02;5.85;;;3.15;;
26742;SDS011;14341;51.256;22.478;2023-04-03T11:46:09;7.40;;;3.47;;
26742;SDS011;14341;51.256;22.478;2023-04-03T11:52:59;3.80;;;2.80;;
26742;SDS011;14341;51.256;22.478;2023-04-03T11:59:36;6.05;;;3.80;;
26742;SDS011;14341;51.256;22.478;2023-04-03T12:02:40;4.20;;;3.13;;
26742;SDS011;14341;51.256;22.478;2023-04-03T12:05:55;6.03;;;2.80;;
26742;SDS011;14341;51.256;22.478;2023-04-03T12:09:02;3.72;;;2.88;;
26742;SDS011;14341;51.256;22.478;2023-04-03T12:12:27;4.72;;;3.05;;
26742;SDS011;14341;51.256;22.478;2023-04-03T12:15:50;5.25;;;3.10;;
26742;SDS011;14341;51.256;22.478;2023-04-03T12:18:56;4.57;;;3.30;;
26742;SDS011;14341;51.256;22.478;2023-04-03T12:22:06;5.05;;;2.90;;
26742;SDS011;14341;51.256;22.478;2023-04-03T12:28:52;4.90;;;4.15;;
26742;SDS011;14341;51.256;22.478;2023-04-03T12:32:03;4.55;;;2.80;;
26742;SDS011;14341;51.256;22.478;2023-04-03T12:35:15;5.38;;;3.03;;
26742;SDS011;14341;51.256;22.478;2023-04-03T12:38:37;3.67;;;3.17;;
26742;SDS011;14341;51.256;22.478;2023-04-03T12:42:01;4.72;;;3.10;;
26742;SDS011;14341;51.256;22.478;2023-04-03T12:45:15;5.35;;;3.20;;
26742;SDS011;14341;51.256;22.478;2023-04-03T12:48:24;3.90;;;3.45;;
26742;SDS011;14341;51.256;22.478;2023-04-03T12:51:31;5.05;;;3.05;;
26742;SDS011;14341;51.256;22.478;2023-04-03T12:57:44;5.18;;;3.40;;
26742;SDS011;14341;51.256;22.478;2023-04-03T13:00:58;5.35;;;3.03;;
26742;SDS011;14341;51.256;22.478;2023-04-03T13:04:02;6.13;;;3.88;;
26742;SDS011;14341;51.256;22.478;2023-04-03T13:07:17;5.82;;;3.35;;
26742;SDS011;14341;51.256;22.478;2023-04-03T13:10:22;5.40;;;2.83;;
26742;SDS011;14341;51.256;22.478;2023-04-03T13:13:27;3.63;;;2.65;;
26742;SDS011;14341;51.256;22.478;2023-04-03T13:16:31;4.13;;;3.40;;
26742;SDS011;14341;51.256;22.478;2023-04-03T13:19:35;4.90;;;3.00;;
26742;SDS011;14341;51.256;22.478;2023-04-03T13:22:47;4.38;;;3.15;;
26742;SDS011;14341;51.256;22.478;2023-04-03T13:25:53;4.07;;;2.88;;
26742;SDS011;14341;51.256;22.478;2023-04-03T13:29:02;6.72;;;3.15;;
26742;SDS011;14341;51.256;22.478;2023-04-03T13:32:13;4.85;;;3.10;;
26742;SDS011;14341;51.256;22.478;2023-04-03T13:38:44;6.75;;;3.10;;
26742;SDS011;14341;51.256;22.478;2023-04-03T13:41:48;4.32;;;3.10;;
26742;SDS011;14341;51.256;22.478;2023-04-03T13:48:35;7.97;;;3.30;;
26742;SDS011;14341;51.256;22.478;2023-04-03T13:51:41;6.38;;;3.83;;
26742;SDS011;14341;51.256;22.478;2023-04-03T13:54:48;8.27;;;3.40;;
26742;SDS011;14341;51.256;22.478;2023-04-03T13:57:57;3.65;;;2.80;;
26742;SDS011;14341;51.256;22.478;2023-04-03T14:01:07;4.97;;;3.03;;
26742;SDS011;14341;51.256;22.478;2023-04-03T14:04:17;4.95;;;3.17;;
26742;SDS011;14341;51.256;22.478;2023-04-03T14:07:22;5.05;;;3.35;;
26742;SDS011;14341;51.256;22.478;2023-04-03T14:10:25;4.95;;;3.10;;
26742;SDS011;14341;51.256;22.478;2023-04-03T14:13:29;11.18;;;4.03;;
26742;SDS011;14341;51.256;22.478;2023-04-03T14:16:37;11.15;;;4.82;;
26742;SDS011;14341;51.256;22.478;2023-04-03T14:19:43;6.80;;;3.55;;
26742;SDS011;14341;51.256;22.478;2023-04-03T14:22:48;9.18;;;3.05;;
26742;SDS011;14341;51.256;22.478;2023-04-03T14:25:52;4.75;;;3.33;;
26742;SDS011;14341;51.256;22.478;2023-04-03T14:29:13;5.40;;;3.63;;
26742;SDS011;14341;51.256;22.478;2023-04-03T14:32:18;9.50;;;4.13;;
26742;SDS011;14341;51.256;22.478;2023-04-03T14:35:27;4.38;;;3.13;;
26742;SDS011;14341;51.256;22.478;2023-04-03T14:38:31;5.80;;;4.35;;
26742;SDS011;14341;51.256;22.478;2023-04-03T14:41:34;8.57;;;4.07;;
26742;SDS011;14341;51.256;22.478;2023-04-03T14:44:38;9.90;;;4.38;;
26742;SDS011;14341;51.256;22.478;2023-04-03T14:47:42;7.68;;;4.70;;
26742;SDS011;14341;51.256;22.478;2023-04-03T14:50:51;13.00;;;6.95;;
26742;SDS011;14341;51.256;22.478;2023-04-03T14:54:09;9.32;;;4.60;;
26742;SDS011;14341;51.256;22.478;2023-04-03T14:57:16;13.05;;;11.75;;
26742;SDS011;14341;51.256;22.478;2023-04-03T15:00:21;12.25;;;6.05;;
26742;SDS011;14341;51.256;22.478;2023-04-03T15:03:25;11.93;;;6.90;;
26742;SDS011;14341;51.256;22.478;2023-04-03T15:06:30;13.43;;;7.22;;
26742;SDS011;14341;51.256;22.478;2023-04-03T15:09:34;12.90;;;5.88;;
26742;SDS011;14341;51.256;22.478;2023-04-03T15:12:39;8.57;;;5.20;;
26742;SDS011;14341;51.256;22.478;2023-04-03T15:15:43;8.15;;;3.72;;
26742;SDS011;14341;51.256;22.478;2023-04-03T15:18:46;8.70;;;4.55;;
26742;SDS011;14341;51.256;22.478;2023-04-03T15:21:51;12.20;;;5.68;;
26742;SDS011;14341;51.256;22.478;2023-04-03T15:24:55;5.60;;;3.90;;
26742;SDS011;14341;51.256;22.478;2023-04-03T15:27:58;8.55;;;4.97;;
26742;SDS011;14341;51.256;22.478;2023-04-03T15:31:03;8.82;;;5.13;;
26742;SDS011;14341;51.256;22.478;2023-04-03T15:34:07;5.50;;;3.97;;
26742;SDS011;14341;51.256;22.478;2023-04-03T15:37:11;5.85;;;3.63;;
26742;SDS011;14341;51.256;22.478;2023-04-03T15:40:15;8.20;;;4.32;;
26742;SDS011;14341;51.256;22.478;2023-04-03T15:43:18;11.70;;;4.93;;
26742;SDS011;14341;51.256;22.478;2023-04-03T15:46:22;10.10;;;5.40;;
26742;SDS011;14341;51.256;22.478;2023-04-03T15:49:25;12.95;;;5.57;;
26742;SDS011;14341;51.256;22.478;2023-04-03T15:52:30;11.45;;;5.65;;
26742;SDS011;14341;51.256;22.478;2023-04-03T15:55:35;9.35;;;5.35;;
26742;SDS011;14341;51.256;22.478;2023-04-03T15:58:40;8.82;;;4.85;;
26742;SDS011;14341;51.256;22.478;2023-04-03T16:01:43;8.43;;;5.18;;
26742;SDS011;14341;51.256;22.478;2023-04-03T16:04:47;6.53;;;4.35;;
26742;SDS011;14341;51.256;22.478;2023-04-03T16:07:53;19.40;;;9.48;;
26742;SDS011;14341;51.256;22.478;2023-04-03T16:10:56;18.33;;;10.45;;
26742;SDS011;14341;51.256;22.478;2023-04-03T16:14:00;10.82;;;6.43;;
26742;SDS011;14341;51.256;22.478;2023-04-03T16:17:03;5.47;;;3.80;;
26742;SDS011;14341;51.256;22.478;2023-04-03T16:20:07;7.68;;;3.80;;
26742;SDS011;14341;51.256;22.478;2023-04-03T16:23:13;6.55;;;4.18;;
26742;SDS011;14341;51.256;22.478;2023-04-03T16:26:17;11.18;;;6.65;;
26742;SDS011;14341;51.256;22.478;2023-04-03T16:29:21;11.63;;;6.40;;
26742;SDS011;14341;51.256;22.478;2023-04-03T16:32:25;32.05;;;11.90;;
26742;SDS011;14341;51.256;22.478;2023-04-03T16:35:31;105.38;;;33.08;;
26742;SDS011;14341;51.256;22.478;2023-04-03T16:38:36;46.20;;;17.25;;
26742;SDS011;14341;51.256;22.478;2023-04-03T16:41:39;163.80;;;53.08;;
26742;SDS011;14341;51.256;22.478;2023-04-03T16:44:43;44.60;;;16.10;;
26742;SDS011;14341;51.256;22.478;2023-04-03T16:47:46;11.40;;;5.60;;
26742;SDS011;14341;51.256;22.478;2023-04-03T16:50:50;10.13;;;6.00;;
26742;SDS011;14341;51.256;22.478;2023-04-03T16:53:56;8.82;;;4.95;;
26742;SDS011;14341;51.256;22.478;2023-04-03T16:57:00;7.65;;;5.03;;
26742;SDS011;14341;51.256;22.478;2023-04-03T17:00:04;12.02;;;6.60;;
26742;SDS011;14341;51.256;22.478;2023-04-03T17:03:08;9.15;;;5.50;;
26742;SDS011;14341;51.256;22.478;2023-04-03T17:06:12;14.57;;;7.20;;
26742;SDS011;14341;51.256;22.478;2023-04-03T17:09:21;14.23;;;6.70;;
26742;SDS011;14341;51.256;22.478;2023-04-03T17:12:41;14.60;;;7.78;;
26742;SDS011;14341;51.256;22.478;2023-04-03T17:15:45;17.65;;;8.68;;
26742;SDS011;14341;51.256;22.478;2023-04-03T17:18:48;14.77;;;6.80;;
26742;SDS011;14341;51.256;22.478;2023-04-03T17:21:54;21.27;;;8.95;;
26742;SDS011;14341;51.256;22.478;2023-04-03T17:24:59;26.60;;;10.80;;
26742;SDS011;14341;51.256;22.478;2023-04-03T17:28:03;26.38;;;9.48;;
26742;SDS011;14341;51.256;22.478;2023-04-03T17:31:06;23.25;;;8.68;;
26742;SDS011;14341;51.256;22.478;2023-04-03T17:34:10;21.33;;;7.88;;
26742;SDS011;14341;51.256;22.478;2023-04-03T17:37:13;15.77;;;6.30;;
26742;SDS011;14341;51.256;22.478;2023-04-03T17:40:20;13.27;;;6.72;;
26742;SDS011;14341;51.256;22.478;2023-04-03T17:43:23;60.88;;;23.50;;
26742;SDS011;14341;51.256;22.478;2023-04-03T17:46:27;20.52;;;8.45;;
26742;SDS011;14341;51.256;22.478;2023-04-03T17:49:36;84.15;;;26.90;;
26742;SDS011;14341;51.256;22.478;2023-04-03T17:52:39;19.13;;;8.63;;
26742;SDS011;14341;51.256;22.478;2023-04-03T17:55:44;17.50;;;8.10;;
26742;SDS011;14341;51.256;22.478;2023-04-03T17:58:48;39.65;;;13.77;;
26742;SDS011;14341;51.256;22.478;2023-04-03T18:01:52;51.30;;;19.67;;
26742;SDS011;14341;51.256;22.478;2023-04-03T18:04:57;19.52;;;8.10;;
26742;SDS011;14341;51.256;22.478;2023-04-03T18:08:00;19.20;;;8.48;;
26742;SDS011;14341;51.256;22.478;2023-04-03T18:11:06;40.80;;;15.95;;
26742;SDS011;14341;51.256;22.478;2023-04-03T18:14:09;24.98;;;8.80;;
26742;SDS011;14341;51.256;22.478;2023-04-03T18:17:17;21.33;;;9.55;;
26742;SDS011;14341;51.256;22.478;2023-04-03T18:20:20;23.95;;;10.20;;
26742;SDS011;14341;51.256;22.478;2023-04-03T18:23:24;11.07;;;6.13;;
26742;SDS011;14341;51.256;22.478;2023-04-03T18:26:29;13.77;;;6.72;;
26742;SDS011;14341;51.256;22.478;2023-04-03T18:29:34;11.93;;;6.45;;
26742;SDS011;14341;51.256;22.478;2023-04-03T18:32:39;16.52;;;7.75;;
26742;SDS011;14341;51.256;22.478;2023-04-03T18:35:43;20.73;;;10.80;;
26742;SDS011;14341;51.256;22.478;2023-04-03T18:38:46;11.05;;;5.88;;
26742;SDS011;14341;51.256;22.478;2023-04-03T18:41:51;13.60;;;7.65;;
26742;SDS011;14341;51.256;22.478;2023-04-03T18:44:55;8.55;;;5.53;;
26742;SDS011;14341;51.256;22.478;2023-04-03T18:48:01;12.27;;;7.57;;
26742;SDS011;14341;51.256;22.478;2023-04-03T18:51:06;12.80;;;6.25;;
26742;SDS011;14341;51.256;22.478;2023-04-03T18:54:11;10.38;;;5.97;;
26742;SDS011;14341;51.256;22.478;2023-04-03T18:57:22;13.80;;;6.78;;
26742;SDS011;14341;51.256;22.478;2023-04-03T19:00:31;10.30;;;5.25;;